sensor_id;sensor_type;location;lat;lon;timestamp;P1;durP1;ratioP1;P2;durP2;ratioP2
29378;SDS011;16362;47.202;15.258;2024-03-08T01:09:06;6.18;;;5.53;;
29378;SDS011;16362;47.202;15.258;2024-03-08T01:52:36;5.55;;;5.15;;
29378;SDS011;16362;47.202;15.258;2024-03-08T02:09:58;7.28;;;6.03;;
29378;SDS011;16362;47.202;15.258;2024-03-08T02:21:05;6.43;;;5.85;;
29378;SDS011;16362;47.202;15.258;2024-03-08T02:46:45;7.38;;;6.15;;
29378;SDS011;16362;47.202;15.258;2024-03-08T03:07:13;7.30;;;6.60;;
29378;SDS011;16362;47.202;15.258;2024-03-08T03:23:22;9.40;;;6.60;;
29378;SDS011;16362;47.202;15.258;2024-03-08T03:29:31;6.45;;;5.85;;
29378;SDS011;16362;47.202;15.258;2024-03-08T03:46:52;6.38;;;5.88;;
29378;SDS011;16362;47.202;15.258;2024-03-08T03:53:10;7.20;;;6.57;;
29378;SDS011;16362;47.202;15.258;2024-03-08T04:08:26;6.72;;;6.13;;
29378;SDS011;16362;47.202;15.258;2024-03-08T04:39:37;7.45;;;6.57;;
29378;SDS011;16362;47.202;15.258;2024-03-08T04:45:56;6.93;;;6.32;;
29378;SDS011;16362;47.202;15.258;2024-03-08T04:52:28;6.95;;;6.38;;
29378;SDS011;16362;47.202;15.258;2024-03-08T06:13:35;13.38;;;9.73;;
29378;SDS011;16362;47.202;15.258;2024-03-08T06:36:11;10.52;;;8.85;;
29378;SDS011;16362;47.202;15.258;2024-03-08T06:47:05;10.75;;;8.90;;
29378;SDS011;16362;47.202;15.258;2024-03-08T06:53:13;13.63;;;10.10;;
29378;SDS011;16362;47.202;15.258;2024-03-08T06:59:35;13.57;;;10.30;;
29378;SDS011;16362;47.202;15.258;2024-03-08T07:05:54;16.77;;;10.98;;
29378;SDS011;16362;47.202;15.258;2024-03-08T07:12:04;16.27;;;10.77;;
29378;SDS011;16362;47.202;15.258;2024-03-08T07:23:02;15.73;;;11.68;;
29378;SDS011;16362;47.202;15.258;2024-03-08T07:30:17;18.58;;;12.88;;
29378;SDS011;16362;47.202;15.258;2024-03-08T07:46:21;18.85;;;12.70;;
29378;SDS011;16362;47.202;15.258;2024-03-08T07:52:30;23.23;;;13.85;;
29378;SDS011;16362;47.202;15.258;2024-03-08T07:58:48;20.35;;;13.63;;
29378;SDS011;16362;47.202;15.258;2024-03-08T08:05:08;23.45;;;13.48;;
29378;SDS011;16362;47.202;15.258;2024-03-08T08:22:32;22.70;;;14.30;;
29378;SDS011;16362;47.202;15.258;2024-03-08T08:28:51;19.48;;;13.18;;
29378;SDS011;16362;47.202;15.258;2024-03-08T08:35:11;23.05;;;13.18;;
29378;SDS011;16362;47.202;15.258;2024-03-08T08:41:29;25.35;;;14.65;;
29378;SDS011;16362;47.202;15.258;2024-03-08T08:59:03;23.38;;;15.20;;
29378;SDS011;16362;47.202;15.258;2024-03-08T09:20:56;19.00;;;14.05;;
29378;SDS011;16362;47.202;15.258;2024-03-08T09:27:05;18.67;;;13.40;;
29378;SDS011;16362;47.202;15.258;2024-03-08T09:52:30;16.15;;;12.75;;
29378;SDS011;16362;47.202;15.258;2024-03-08T09:58:50;19.40;;;13.90;;
29378;SDS011;16362;47.202;15.258;2024-03-08T10:16:29;15.63;;;11.88;;
29378;SDS011;16362;47.202;15.258;2024-03-08T10:23:02;15.77;;;12.55;;
29378;SDS011;16362;47.202;15.258;2024-03-08T10:29:27;16.52;;;12.07;;
29378;SDS011;16362;47.202;15.258;2024-03-08T10:40:03;16.75;;;12.27;;
29378;SDS011;16362;47.202;15.258;2024-03-08T11:01:55;11.18;;;9.82;;
29378;SDS011;16362;47.202;15.258;2024-03-08T11:23:37;11.25;;;9.18;;
29378;SDS011;16362;47.202;15.258;2024-03-08T11:34:39;10.80;;;8.93;;
29378;SDS011;16362;47.202;15.258;2024-03-08T11:44:50;11.50;;;9.65;;
29378;SDS011;16362;47.202;15.258;2024-03-08T11:55:00;14.80;;;10.63;;
29378;SDS011;16362;47.202;15.258;2024-03-08T12:01:09;14.50;;;10.50;;
29378;SDS011;16362;47.202;15.258;2024-03-08T12:07:55;12.05;;;10.02;;
29378;SDS011;16362;47.202;15.258;2024-03-08T12:14:15;12.55;;;10.27;;
29378;SDS011;16362;47.202;15.258;2024-03-08T12:20:34;14.30;;;10.63;;
29378;SDS011;16362;47.202;15.258;2024-03-08T12:26:43;12.52;;;10.23;;
29378;SDS011;16362;47.202;15.258;2024-03-08T12:33:01;12.90;;;9.93;;
29378;SDS011;16362;47.202;15.258;2024-03-08T12:39:20;13.48;;;10.75;;
29378;SDS011;16362;47.202;15.258;2024-03-08T12:46:07;11.60;;;9.35;;
29378;SDS011;16362;47.202;15.258;2024-03-08T12:52:16;11.70;;;9.10;;
29378;SDS011;16362;47.202;15.258;2024-03-08T12:58:36;11.80;;;9.38;;
29378;SDS011;16362;47.202;15.258;2024-03-08T13:04:56;12.20;;;9.73;;
29378;SDS011;16362;47.202;15.258;2024-03-08T13:11:18;13.93;;;10.00;;
29378;SDS011;16362;47.202;15.258;2024-03-08T13:17:27;10.63;;;9.40;;
29378;SDS011;16362;47.202;15.258;2024-03-08T13:23:46;11.27;;;9.57;;
29378;SDS011;16362;47.202;15.258;2024-03-08T13:30:07;11.07;;;9.35;;
29378;SDS011;16362;47.202;15.258;2024-03-08T13:36:20;10.50;;;9.18;;
29378;SDS011;16362;47.202;15.258;2024-03-08T13:46:32;18.58;;;10.43;;
29378;SDS011;16362;47.202;15.258;2024-03-08T13:52:54;12.15;;;10.00;;
29378;SDS011;16362;47.202;15.258;2024-03-08T13:59:13;14.43;;;10.82;;
29378;SDS011;16362;47.202;15.258;2024-03-08T14:05:31;11.45;;;10.27;;
29378;SDS011;16362;47.202;15.258;2024-03-08T14:11:43;13.05;;;10.38;;
29378;SDS011;16362;47.202;15.258;2024-03-08T14:18:05;14.60;;;11.15;;
29378;SDS011;16362;47.202;15.258;2024-03-08T14:24:24;12.20;;;10.23;;
29378;SDS011;16362;47.202;15.258;2024-03-08T14:30:43;11.95;;;10.57;;
29378;SDS011;16362;47.202;15.258;2024-03-08T14:36:52;14.45;;;11.05;;
29378;SDS011;16362;47.202;15.258;2024-03-08T14:53:48;16.80;;;11.45;;
29378;SDS011;16362;47.202;15.258;2024-03-08T15:00:07;15.23;;;11.18;;
29378;SDS011;16362;47.202;15.258;2024-03-08T15:06:23;14.25;;;12.13;;
29378;SDS011;16362;47.202;15.258;2024-03-08T15:12:32;11.93;;;10.70;;
29378;SDS011;16362;47.202;15.258;2024-03-08T15:18:50;13.70;;;10.93;;
29378;SDS011;16362;47.202;15.258;2024-03-08T15:25:10;18.13;;;12.32;;
29378;SDS011;16362;47.202;15.258;2024-03-08T15:31:28;16.42;;;12.32;;
29378;SDS011;16362;47.202;15.258;2024-03-08T15:37:47;18.10;;;11.60;;
29378;SDS011;16362;47.202;15.258;2024-03-08T15:48:10;17.38;;;12.30;;
29378;SDS011;16362;47.202;15.258;2024-03-08T15:54:29;13.48;;;11.07;;
29378;SDS011;16362;47.202;15.258;2024-03-08T16:00:47;15.70;;;11.15;;
29378;SDS011;16362;47.202;15.258;2024-03-08T16:06:55;15.02;;;11.23;;
29378;SDS011;16362;47.202;15.258;2024-03-08T16:13:17;18.23;;;12.82;;
29378;SDS011;16362;47.202;15.258;2024-03-08T16:19:38;18.63;;;13.15;;
29378;SDS011;16362;47.202;15.258;2024-03-08T16:25:59;15.07;;;11.75;;
29378;SDS011;16362;47.202;15.258;2024-03-08T16:32:07;23.20;;;14.95;;
29378;SDS011;16362;47.202;15.258;2024-03-08T16:38:26;23.15;;;15.43;;
29378;SDS011;16362;47.202;15.258;2024-03-08T16:49:01;23.52;;;15.27;;
29378;SDS011;16362;47.202;15.258;2024-03-08T16:55:22;25.20;;;16.80;;
29378;SDS011;16362;47.202;15.258;2024-03-08T17:01:31;25.75;;;15.35;;
29378;SDS011;16362;47.202;15.258;2024-03-08T17:07:50;29.30;;;17.45;;
29378;SDS011;16362;47.202;15.258;2024-03-08T17:14:09;30.33;;;18.27;;
29378;SDS011;16362;47.202;15.258;2024-03-08T17:20:30;30.90;;;18.75;;
29378;SDS011;16362;47.202;15.258;2024-03-08T17:26:39;34.50;;;18.70;;
29378;SDS011;16362;47.202;15.258;2024-03-08T17:32:58;34.72;;;20.88;;
29378;SDS011;16362;47.202;15.258;2024-03-08T17:39:18;34.38;;;20.35;;
29378;SDS011;16362;47.202;15.258;2024-03-08T17:49:40;38.78;;;21.70;;
29378;SDS011;16362;47.202;15.258;2024-03-08T17:55:50;40.80;;;22.80;;
29378;SDS011;16362;47.202;15.258;2024-03-08T18:01:59;39.13;;;22.88;;
29378;SDS011;16362;47.202;15.258;2024-03-08T18:08:18;37.97;;;22.25;;
29378;SDS011;16362;47.202;15.258;2024-03-08T18:14:36;49.30;;;23.83;;
29378;SDS011;16362;47.202;15.258;2024-03-08T18:20:55;44.85;;;22.67;;
29378;SDS011;16362;47.202;15.258;2024-03-08T18:27:04;44.90;;;23.48;;
29378;SDS011;16362;47.202;15.258;2024-03-08T18:33:52;47.95;;;24.60;;
29378;SDS011;16362;47.202;15.258;2024-03-08T18:40:10;45.45;;;26.02;;
29378;SDS011;16362;47.202;15.258;2024-03-08T18:50:55;51.15;;;25.65;;
29378;SDS011;16362;47.202;15.258;2024-03-08T18:57:06;48.47;;;25.50;;
29378;SDS011;16362;47.202;15.258;2024-03-08T19:03:51;56.90;;;28.15;;
29378;SDS011;16362;47.202;15.258;2024-03-08T19:10:13;54.95;;;28.15;;
29378;SDS011;16362;47.202;15.258;2024-03-08T19:16:26;59.13;;;30.00;;
29378;SDS011;16362;47.202;15.258;2024-03-08T19:22:46;55.30;;;28.35;;
29378;SDS011;16362;47.202;15.258;2024-03-08T19:29:05;53.70;;;28.27;;
29378;SDS011;16362;47.202;15.258;2024-03-08T19:35:24;52.08;;;28.20;;
29378;SDS011;16362;47.202;15.258;2024-03-08T19:41:33;60.72;;;29.88;;
29378;SDS011;16362;47.202;15.258;2024-03-08T19:52:22;61.75;;;31.92;;
29378;SDS011;16362;47.202;15.258;2024-03-08T19:58:41;63.65;;;31.98;;
29378;SDS011;16362;47.202;15.258;2024-03-08T20:05:00;71.15;;;35.00;;
29378;SDS011;16362;47.202;15.258;2024-03-08T20:11:09;66.88;;;31.33;;
29378;SDS011;16362;47.202;15.258;2024-03-08T20:17:29;68.35;;;33.10;;
29378;SDS011;16362;47.202;15.258;2024-03-08T20:23:47;59.35;;;30.63;;
29378;SDS011;16362;47.202;15.258;2024-03-08T20:29:57;62.35;;;31.88;;
29378;SDS011;16362;47.202;15.258;2024-03-08T20:36:16;63.90;;;32.15;;
29378;SDS011;16362;47.202;15.258;2024-03-08T20:42:34;70.47;;;32.60;;
29378;SDS011;16362;47.202;15.258;2024-03-08T20:53:12;69.72;;;33.97;;
29378;SDS011;16362;47.202;15.258;2024-03-08T20:59:22;67.47;;;34.97;;
29378;SDS011;16362;47.202;15.258;2024-03-08T21:05:42;66.50;;;33.63;;
29378;SDS011;16362;47.202;15.258;2024-03-08T21:12:01;73.78;;;33.88;;
29378;SDS011;16362;47.202;15.258;2024-03-08T21:18:24;65.63;;;32.75;;
29378;SDS011;16362;47.202;15.258;2024-03-08T21:24:34;68.82;;;33.80;;
29378;SDS011;16362;47.202;15.258;2024-03-08T21:30:53;69.82;;;33.67;;
29378;SDS011;16362;47.202;15.258;2024-03-08T21:37:13;68.43;;;35.03;;
29378;SDS011;16362;47.202;15.258;2024-03-08T21:43:32;69.78;;;34.75;;
29378;SDS011;16362;47.202;15.258;2024-03-08T21:53:47;70.07;;;34.53;;
29378;SDS011;16362;47.202;15.258;2024-03-08T22:00:06;67.43;;;34.85;;
29378;SDS011;16362;47.202;15.258;2024-03-08T22:06:40;72.93;;;33.80;;
29378;SDS011;16362;47.202;15.258;2024-03-08T22:13:00;66.75;;;32.33;;
29378;SDS011;16362;47.202;15.258;2024-03-08T22:19:08;65.38;;;32.70;;
29378;SDS011;16362;47.202;15.258;2024-03-08T22:25:28;76.78;;;33.70;;
29378;SDS011;16362;47.202;15.258;2024-03-08T22:31:49;64.30;;;32.45;;
29378;SDS011;16362;47.202;15.258;2024-03-08T22:37:59;64.57;;;33.55;;
29378;SDS011;16362;47.202;15.258;2024-03-08T22:44:18;73.75;;;35.40;;
29378;SDS011;16362;47.202;15.258;2024-03-08T22:54:55;72.88;;;35.22;;
29378;SDS011;16362;47.202;15.258;2024-03-08T23:01:13;68.95;;;33.80;;
29378;SDS011;16362;47.202;15.258;2024-03-08T23:07:25;64.72;;;31.65;;
29378;SDS011;16362;47.202;15.258;2024-03-08T23:13:45;65.53;;;31.67;;
29378;SDS011;16362;47.202;15.258;2024-03-08T23:20:04;74.63;;;35.00;;
29378;SDS011;16362;47.202;15.258;2024-03-08T23:26:26;63.15;;;30.83;;
29378;SDS011;16362;47.202;15.258;2024-03-08T23:32:35;64.43;;;31.85;;
29378;SDS011;16362;47.202;15.258;2024-03-08T23:38:53;63.30;;;31.55;;
29378;SDS011;16362;47.202;15.258;2024-03-08T23:45:12;57.33;;;29.40;;
29378;SDS011;16362;47.202;15.258;2024-03-08T23:55:42;65.72;;;32.33;;
